sensor_id;sensor_type;location;lat;lon;timestamp;P1;durP1;ratioP1;P2;durP2;ratioP2
74530;SDS011;63010;55.668;37.878;2022-12-18T00:02:03;6.40;;;3.70;;
74530;SDS011;63010;55.668;37.878;2022-12-18T00:04:29;8.40;;;4.50;;
74530;SDS011;63010;55.668;37.878;2022-12-18T00:06:54;7.57;;;4.13;;
74530;SDS011;63010;55.668;37.878;2022-12-18T00:09:20;9.90;;;5.75;;
74530;SDS011;63010;55.668;37.878;2022-12-18T00:11:46;11.00;;;5.40;;
74530;SDS011;63010;55.668;37.878;2022-12-18T00:14:12;9.40;;;5.25;;
74530;SDS011;63010;55.668;37.878;2022-12-18T00:16:38;8.55;;;5.07;;
74530;SDS011;63010;55.668;37.878;2022-12-18T00:19:05;4.60;;;2.10;;
74530;SDS011;63010;55.668;37.878;2022-12-18T00:21:31;8.75;;;5.32;;
74530;SDS011;63010;55.668;37.878;2022-12-18T00:23:58;8.23;;;5.05;;
74530;SDS011;63010;55.668;37.878;2022-12-18T00:26:25;8.07;;;3.97;;
74530;SDS011;63010;55.668;37.878;2022-12-18T00:28:58;7.90;;;4.45;;
74530;SDS011;63010;55.668;37.878;2022-12-18T00:31:25;6.80;;;3.95;;
74530;SDS011;63010;55.668;37.878;2022-12-18T00:33:51;8.43;;;4.40;;
74530;SDS011;63010;55.668;37.878;2022-12-18T00:36:20;7.75;;;4.78;;
74530;SDS011;63010;55.668;37.878;2022-12-18T00:38:48;7.18;;;4.88;;
74530;SDS011;63010;55.668;37.878;2022-12-18T00:41:14;9.05;;;5.05;;
74530;SDS011;63010;55.668;37.878;2022-12-18T00:44:01;6.38;;;3.58;;
74530;SDS011;63010;55.668;37.878;2022-12-18T00:46:28;6.60;;;4.43;;
74530;SDS011;63010;55.668;37.878;2022-12-18T00:48:54;6.35;;;3.95;;
74530;SDS011;63010;55.668;37.878;2022-12-18T00:51:19;9.48;;;4.13;;
74530;SDS011;63010;55.668;37.878;2022-12-18T00:53:45;5.72;;;2.83;;
74530;SDS011;63010;55.668;37.878;2022-12-18T00:56:10;6.18;;;3.30;;
74530;SDS011;63010;55.668;37.878;2022-12-18T00:58:36;8.25;;;5.13;;
74530;SDS011;63010;55.668;37.878;2022-12-18T01:01:03;8.80;;;4.65;;
74530;SDS011;63010;55.668;37.878;2022-12-18T01:03:30;8.50;;;4.35;;
74530;SDS011;63010;55.668;37.878;2022-12-18T01:05:55;8.38;;;4.38;;
74530;SDS011;63010;55.668;37.878;2022-12-18T01:08:21;7.80;;;4.07;;
74530;SDS011;63010;55.668;37.878;2022-12-18T01:10:47;9.05;;;4.57;;
74530;SDS011;63010;55.668;37.878;2022-12-18T01:13:12;7.10;;;4.30;;
74530;SDS011;63010;55.668;37.878;2022-12-18T01:15:38;10.20;;;5.40;;
74530;SDS011;63010;55.668;37.878;2022-12-18T01:18:05;7.47;;;4.47;;
74530;SDS011;63010;55.668;37.878;2022-12-18T01:20:31;8.68;;;4.72;;
74530;SDS011;63010;55.668;37.878;2022-12-18T01:22:56;7.57;;;4.57;;
74530;SDS011;63010;55.668;37.878;2022-12-18T01:25:22;5.15;;;2.95;;
74530;SDS011;63010;55.668;37.878;2022-12-18T01:27:47;7.82;;;3.88;;
74530;SDS011;63010;55.668;37.878;2022-12-18T01:30:13;5.65;;;3.92;;
74530;SDS011;63010;55.668;37.878;2022-12-18T01:32:39;5.70;;;3.35;;
74530;SDS011;63010;55.668;37.878;2022-12-18T01:35:04;6.57;;;3.88;;
74530;SDS011;63010;55.668;37.878;2022-12-18T01:37:30;5.03;;;3.90;;
74530;SDS011;63010;55.668;37.878;2022-12-18T01:39:56;8.00;;;3.83;;
74530;SDS011;63010;55.668;37.878;2022-12-18T01:42:22;6.05;;;4.32;;
74530;SDS011;63010;55.668;37.878;2022-12-18T01:52:43;5.60;;;3.58;;
74530;SDS011;63010;55.668;37.878;2022-12-18T01:55:13;5.65;;;3.17;;
74530;SDS011;63010;55.668;37.878;2022-12-18T01:57:41;7.35;;;4.45;;
74530;SDS011;63010;55.668;37.878;2022-12-18T02:00:11;8.02;;;4.40;;
74530;SDS011;63010;55.668;37.878;2022-12-18T02:02:43;7.03;;;4.05;;
74530;SDS011;63010;55.668;37.878;2022-12-18T02:05:11;8.50;;;4.28;;
74530;SDS011;63010;55.668;37.878;2022-12-18T02:12:42;5.75;;;3.20;;
74530;SDS011;63010;55.668;37.878;2022-12-18T02:18:05;5.68;;;3.85;;
74530;SDS011;63010;55.668;37.878;2022-12-18T02:20:43;4.85;;;3.58;;
74530;SDS011;63010;55.668;37.878;2022-12-18T02:28:49;6.55;;;4.18;;
74530;SDS011;63010;55.668;37.878;2022-12-18T02:31:27;6.35;;;4.10;;
74530;SDS011;63010;55.668;37.878;2022-12-18T02:33:56;5.68;;;3.10;;
74530;SDS011;63010;55.668;37.878;2022-12-18T02:36:27;6.32;;;4.15;;
74530;SDS011;63010;55.668;37.878;2022-12-18T02:38:54;6.22;;;3.55;;
74530;SDS011;63010;55.668;37.878;2022-12-18T02:41:21;5.03;;;3.45;;
74530;SDS011;63010;55.668;37.878;2022-12-18T02:43:48;7.22;;;4.28;;
74530;SDS011;63010;55.668;37.878;2022-12-18T02:48:57;5.47;;;3.40;;
74530;SDS011;63010;55.668;37.878;2022-12-18T02:51:37;5.63;;;4.13;;
74530;SDS011;63010;55.668;37.878;2022-12-18T02:56:57;7.78;;;3.72;;
74530;SDS011;63010;55.668;37.878;2022-12-18T03:05:18;4.38;;;2.83;;
74530;SDS011;63010;55.668;37.878;2022-12-18T03:07:53;6.35;;;4.10;;
74530;SDS011;63010;55.668;37.878;2022-12-18T03:10:25;5.30;;;3.30;;
74530;SDS011;63010;55.668;37.878;2022-12-18T03:13:06;6.18;;;3.83;;
74530;SDS011;63010;55.668;37.878;2022-12-18T03:15:37;6.32;;;4.18;;
74530;SDS011;63010;55.668;37.878;2022-12-18T03:18:15;6.65;;;4.03;;
74530;SDS011;63010;55.668;37.878;2022-12-18T03:20:46;6.70;;;3.47;;
74530;SDS011;63010;55.668;37.878;2022-12-18T03:23:18;6.35;;;4.07;;
74530;SDS011;63010;55.668;37.878;2022-12-18T03:25:48;4.32;;;2.70;;
74530;SDS011;63010;55.668;37.878;2022-12-18T03:28:19;6.63;;;4.13;;
74530;SDS011;63010;55.668;37.878;2022-12-18T03:30:47;6.15;;;3.65;;
74530;SDS011;63010;55.668;37.878;2022-12-18T03:33:25;6.78;;;3.83;;
74530;SDS011;63010;55.668;37.878;2022-12-18T03:35:57;5.88;;;4.05;;
74530;SDS011;63010;55.668;37.878;2022-12-18T03:38:23;6.40;;;3.72;;
74530;SDS011;63010;55.668;37.878;2022-12-18T03:41:10;6.50;;;3.83;;
74530;SDS011;63010;55.668;37.878;2022-12-18T03:52:37;6.15;;;3.30;;
74530;SDS011;63010;55.668;37.878;2022-12-18T03:55:07;6.00;;;3.30;;
74530;SDS011;63010;55.668;37.878;2022-12-18T04:00:07;8.38;;;3.38;;
74530;SDS011;63010;55.668;37.878;2022-12-18T04:02:35;7.15;;;3.65;;
74530;SDS011;63010;55.668;37.878;2022-12-18T04:05:04;3.95;;;2.58;;
74530;SDS011;63010;55.668;37.878;2022-12-18T04:07:32;5.30;;;2.97;;
74530;SDS011;63010;55.668;37.878;2022-12-18T04:09:58;5.10;;;3.42;;
74530;SDS011;63010;55.668;37.878;2022-12-18T04:12:28;6.80;;;4.35;;
74530;SDS011;63010;55.668;37.878;2022-12-18T04:14:54;6.25;;;4.32;;
74530;SDS011;63010;55.668;37.878;2022-12-18T04:17:20;6.32;;;3.88;;
74530;SDS011;63010;55.668;37.878;2022-12-18T04:19:46;5.40;;;3.63;;
74530;SDS011;63010;55.668;37.878;2022-12-18T04:22:12;3.70;;;2.45;;
74530;SDS011;63010;55.668;37.878;2022-12-18T04:24:38;8.13;;;3.88;;
74530;SDS011;63010;55.668;37.878;2022-12-18T04:27:03;6.00;;;3.88;;
74530;SDS011;63010;55.668;37.878;2022-12-18T04:29:29;6.70;;;3.65;;
74530;SDS011;63010;55.668;37.878;2022-12-18T04:31:55;5.68;;;3.40;;
74530;SDS011;63010;55.668;37.878;2022-12-18T04:34:20;6.15;;;3.67;;
74530;SDS011;63010;55.668;37.878;2022-12-18T04:36:46;7.13;;;3.38;;
74530;SDS011;63010;55.668;37.878;2022-12-18T04:39:12;7.43;;;4.50;;
74530;SDS011;63010;55.668;37.878;2022-12-18T04:41:38;6.85;;;3.72;;
74530;SDS011;63010;55.668;37.878;2022-12-18T04:44:03;5.45;;;3.40;;
74530;SDS011;63010;55.668;37.878;2022-12-18T04:46:29;6.43;;;4.05;;
74530;SDS011;63010;55.668;37.878;2022-12-18T04:48:55;6.88;;;3.78;;
74530;SDS011;63010;55.668;37.878;2022-12-18T04:51:21;6.32;;;2.80;;
74530;SDS011;63010;55.668;37.878;2022-12-18T04:53:46;7.45;;;3.67;;
74530;SDS011;63010;55.668;37.878;2022-12-18T04:56:13;7.03;;;2.75;;
74530;SDS011;63010;55.668;37.878;2022-12-18T04:58:40;6.15;;;3.53;;
74530;SDS011;63010;55.668;37.878;2022-12-18T05:01:08;3.95;;;2.63;;
74530;SDS011;63010;55.668;37.878;2022-12-18T05:03:35;5.68;;;3.33;;
74530;SDS011;63010;55.668;37.878;2022-12-18T05:06:01;6.20;;;4.30;;
74530;SDS011;63010;55.668;37.878;2022-12-18T05:08:27;5.93;;;3.80;;
74530;SDS011;63010;55.668;37.878;2022-12-18T05:11:02;5.88;;;3.30;;
74530;SDS011;63010;55.668;37.878;2022-12-18T05:13:33;5.03;;;3.85;;
74530;SDS011;63010;55.668;37.878;2022-12-18T05:16:00;7.20;;;3.97;;
74530;SDS011;63010;55.668;37.878;2022-12-18T05:18:26;5.35;;;4.05;;
74530;SDS011;63010;55.668;37.878;2022-12-18T05:20:52;4.68;;;3.42;;
74530;SDS011;63010;55.668;37.878;2022-12-18T05:23:19;6.43;;;4.03;;
74530;SDS011;63010;55.668;37.878;2022-12-18T05:25:52;7.22;;;4.35;;
74530;SDS011;63010;55.668;37.878;2022-12-18T05:28:20;5.95;;;3.72;;
74530;SDS011;63010;55.668;37.878;2022-12-18T05:30:49;6.50;;;3.78;;
74530;SDS011;63010;55.668;37.878;2022-12-18T05:33:16;5.20;;;3.03;;
74530;SDS011;63010;55.668;37.878;2022-12-18T05:35:42;6.65;;;4.00;;
74530;SDS011;63010;55.668;37.878;2022-12-18T05:38:08;6.28;;;3.75;;
74530;SDS011;63010;55.668;37.878;2022-12-18T05:40:34;6.63;;;4.10;;
74530;SDS011;63010;55.668;37.878;2022-12-18T05:42:59;7.47;;;3.33;;
74530;SDS011;63010;55.668;37.878;2022-12-18T05:45:25;5.55;;;3.22;;
74530;SDS011;63010;55.668;37.878;2022-12-18T05:47:50;5.80;;;3.03;;
74530;SDS011;63010;55.668;37.878;2022-12-18T05:50:16;3.13;;;2.67;;
74530;SDS011;63010;55.668;37.878;2022-12-18T05:52:41;6.32;;;3.70;;
74530;SDS011;63010;55.668;37.878;2022-12-18T05:55:07;7.53;;;3.83;;
74530;SDS011;63010;55.668;37.878;2022-12-18T05:57:33;6.38;;;3.10;;
74530;SDS011;63010;55.668;37.878;2022-12-18T05:59:59;5.80;;;3.03;;
74530;SDS011;63010;55.668;37.878;2022-12-18T06:02:25;7.53;;;4.40;;
74530;SDS011;63010;55.668;37.878;2022-12-18T06:04:51;5.82;;;3.20;;
74530;SDS011;63010;55.668;37.878;2022-12-18T06:07:16;5.00;;;3.28;;
74530;SDS011;63010;55.668;37.878;2022-12-18T06:09:42;5.78;;;3.13;;
74530;SDS011;63010;55.668;37.878;2022-12-18T06:12:08;4.82;;;3.38;;
74530;SDS011;63010;55.668;37.878;2022-12-18T06:14:33;5.38;;;3.55;;
74530;SDS011;63010;55.668;37.878;2022-12-18T06:16:59;7.07;;;3.70;;
74530;SDS011;63010;55.668;37.878;2022-12-18T06:19:24;6.28;;;3.40;;
74530;SDS011;63010;55.668;37.878;2022-12-18T06:21:50;5.78;;;3.10;;
74530;SDS011;63010;55.668;37.878;2022-12-18T06:24:16;6.72;;;3.92;;
74530;SDS011;63010;55.668;37.878;2022-12-18T06:26:42;8.60;;;3.97;;
74530;SDS011;63010;55.668;37.878;2022-12-18T06:29:07;5.15;;;3.42;;
74530;SDS011;63010;55.668;37.878;2022-12-18T06:31:33;7.75;;;4.38;;
74530;SDS011;63010;55.668;37.878;2022-12-18T06:34:01;7.32;;;4.18;;
74530;SDS011;63010;55.668;37.878;2022-12-18T06:36:29;6.78;;;4.07;;
74530;SDS011;63010;55.668;37.878;2022-12-18T06:38:56;6.00;;;3.40;;
74530;SDS011;63010;55.668;37.878;2022-12-18T06:41:22;7.47;;;4.18;;
74530;SDS011;63010;55.668;37.878;2022-12-18T06:43:47;8.63;;;4.80;;
74530;SDS011;63010;55.668;37.878;2022-12-18T06:46:13;8.27;;;4.28;;
74530;SDS011;63010;55.668;37.878;2022-12-18T06:48:39;8.45;;;4.15;;
74530;SDS011;63010;55.668;37.878;2022-12-18T06:51:05;8.77;;;5.55;;
74530;SDS011;63010;55.668;37.878;2022-12-18T06:53:31;7.72;;;3.42;;
74530;SDS011;63010;55.668;37.878;2022-12-18T06:56:04;6.55;;;4.05;;
74530;SDS011;63010;55.668;37.878;2022-12-18T06:58:32;8.13;;;4.43;;
74530;SDS011;63010;55.668;37.878;2022-12-18T07:01:01;4.45;;;2.90;;
74530;SDS011;63010;55.668;37.878;2022-12-18T07:03:31;7.35;;;4.03;;
74530;SDS011;63010;55.668;37.878;2022-12-18T07:05:57;9.38;;;4.10;;
74530;SDS011;63010;55.668;37.878;2022-12-18T07:08:22;7.75;;;4.10;;
74530;SDS011;63010;55.668;37.878;2022-12-18T07:10:48;4.97;;;3.72;;
74530;SDS011;63010;55.668;37.878;2022-12-18T07:13:18;4.72;;;3.33;;
74530;SDS011;63010;55.668;37.878;2022-12-18T07:15:43;5.53;;;3.50;;
74530;SDS011;63010;55.668;37.878;2022-12-18T07:18:09;5.45;;;3.65;;
74530;SDS011;63010;55.668;37.878;2022-12-18T07:20:35;7.13;;;3.92;;
74530;SDS011;63010;55.668;37.878;2022-12-18T07:23:02;6.57;;;3.95;;
74530;SDS011;63010;55.668;37.878;2022-12-18T07:25:28;5.63;;;3.63;;
74530;SDS011;63010;55.668;37.878;2022-12-18T07:27:54;7.85;;;4.22;;
74530;SDS011;63010;55.668;37.878;2022-12-18T07:30:20;5.97;;;3.53;;
74530;SDS011;63010;55.668;37.878;2022-12-18T07:32:46;6.80;;;3.42;;
74530;SDS011;63010;55.668;37.878;2022-12-18T07:35:12;6.68;;;4.25;;
74530;SDS011;63010;55.668;37.878;2022-12-18T07:37:38;5.68;;;3.55;;
74530;SDS011;63010;55.668;37.878;2022-12-18T07:40:03;6.18;;;4.10;;
74530;SDS011;63010;55.668;37.878;2022-12-18T07:42:29;7.85;;;3.95;;
74530;SDS011;63010;55.668;37.878;2022-12-18T07:44:58;7.03;;;4.00;;
74530;SDS011;63010;55.668;37.878;2022-12-18T07:47:25;6.20;;;3.95;;
74530;SDS011;63010;55.668;37.878;2022-12-18T07:49:51;6.22;;;3.85;;
74530;SDS011;63010;55.668;37.878;2022-12-18T07:52:17;5.15;;;3.05;;
74530;SDS011;63010;55.668;37.878;2022-12-18T07:54:42;7.95;;;4.00;;
74530;SDS011;63010;55.668;37.878;2022-12-18T07:57:08;8.85;;;3.70;;
74530;SDS011;63010;55.668;37.878;2022-12-18T07:59:34;6.03;;;3.28;;
74530;SDS011;63010;55.668;37.878;2022-12-18T08:02:00;7.30;;;4.45;;
74530;SDS011;63010;55.668;37.878;2022-12-18T08:04:25;6.03;;;3.38;;
74530;SDS011;63010;55.668;37.878;2022-12-18T08:06:51;5.68;;;3.20;;
74530;SDS011;63010;55.668;37.878;2022-12-18T08:09:17;8.45;;;3.90;;
74530;SDS011;63010;55.668;37.878;2022-12-18T08:11:43;8.75;;;4.47;;
74530;SDS011;63010;55.668;37.878;2022-12-18T08:14:08;6.15;;;4.28;;
74530;SDS011;63010;55.668;37.878;2022-12-18T08:16:35;7.15;;;3.75;;
74530;SDS011;63010;55.668;37.878;2022-12-18T08:19:00;7.78;;;4.10;;
74530;SDS011;63010;55.668;37.878;2022-12-18T08:21:30;8.93;;;3.63;;
74530;SDS011;63010;55.668;37.878;2022-12-18T08:23:59;6.30;;;4.35;;
74530;SDS011;63010;55.668;37.878;2022-12-18T08:26:27;8.27;;;4.80;;
74530;SDS011;63010;55.668;37.878;2022-12-18T08:28:54;7.13;;;3.88;;
74530;SDS011;63010;55.668;37.878;2022-12-18T08:31:21;7.07;;;4.55;;
74530;SDS011;63010;55.668;37.878;2022-12-18T08:33:50;6.93;;;4.57;;
74530;SDS011;63010;55.668;37.878;2022-12-18T08:36:18;8.15;;;4.70;;
74530;SDS011;63010;55.668;37.878;2022-12-18T08:38:45;6.25;;;3.67;;
74530;SDS011;63010;55.668;37.878;2022-12-18T08:41:11;6.93;;;4.35;;
74530;SDS011;63010;55.668;37.878;2022-12-18T08:43:39;9.50;;;4.60;;
74530;SDS011;63010;55.668;37.878;2022-12-18T08:46:24;6.30;;;3.78;;
74530;SDS011;63010;55.668;37.878;2022-12-18T08:48:52;4.57;;;2.60;;
74530;SDS011;63010;55.668;37.878;2022-12-18T08:51:20;7.80;;;4.75;;
74530;SDS011;63010;55.668;37.878;2022-12-18T08:53:45;7.43;;;3.70;;
74530;SDS011;63010;55.668;37.878;2022-12-18T08:56:12;7.95;;;4.53;;
74530;SDS011;63010;55.668;37.878;2022-12-18T08:58:39;6.63;;;4.07;;
74530;SDS011;63010;55.668;37.878;2022-12-18T09:01:06;7.43;;;4.65;;
74530;SDS011;63010;55.668;37.878;2022-12-18T09:03:34;6.43;;;3.58;;
74530;SDS011;63010;55.668;37.878;2022-12-18T09:06:00;6.55;;;3.85;;
74530;SDS011;63010;55.668;37.878;2022-12-18T09:08:27;6.57;;;3.78;;
74530;SDS011;63010;55.668;37.878;2022-12-18T09:10:53;5.43;;;3.45;;
74530;SDS011;63010;55.668;37.878;2022-12-18T09:13:19;5.65;;;4.00;;
74530;SDS011;63010;55.668;37.878;2022-12-18T09:15:46;8.02;;;3.90;;
74530;SDS011;63010;55.668;37.878;2022-12-18T09:18:14;5.30;;;2.85;;
74530;SDS011;63010;55.668;37.878;2022-12-18T09:20:41;8.32;;;3.50;;
74530;SDS011;63010;55.668;37.878;2022-12-18T09:23:07;8.60;;;4.57;;
74530;SDS011;63010;55.668;37.878;2022-12-18T09:25:33;7.28;;;4.38;;
74530;SDS011;63010;55.668;37.878;2022-12-18T09:28:01;6.95;;;3.97;;
74530;SDS011;63010;55.668;37.878;2022-12-18T09:30:28;9.30;;;4.90;;
74530;SDS011;63010;55.668;37.878;2022-12-18T09:32:54;8.43;;;3.72;;
74530;SDS011;63010;55.668;37.878;2022-12-18T09:35:19;7.15;;;4.32;;
74530;SDS011;63010;55.668;37.878;2022-12-18T09:37:45;7.60;;;4.50;;
74530;SDS011;63010;55.668;37.878;2022-12-18T09:40:18;6.72;;;4.07;;
74530;SDS011;63010;55.668;37.878;2022-12-18T09:42:47;4.38;;;2.92;;
74530;SDS011;63010;55.668;37.878;2022-12-18T09:45:19;5.03;;;2.58;;
74530;SDS011;63010;55.668;37.878;2022-12-18T09:47:45;8.05;;;4.00;;
74530;SDS011;63010;55.668;37.878;2022-12-18T09:50:17;8.13;;;3.63;;
74530;SDS011;63010;55.668;37.878;2022-12-18T09:52:57;6.22;;;3.80;;
74530;SDS011;63010;55.668;37.878;2022-12-18T09:55:40;6.68;;;4.10;;
74530;SDS011;63010;55.668;37.878;2022-12-18T09:58:41;9.20;;;4.25;;
74530;SDS011;63010;55.668;37.878;2022-12-18T10:01:14;5.10;;;3.35;;
74530;SDS011;63010;55.668;37.878;2022-12-18T10:03:43;5.85;;;3.50;;
74530;SDS011;63010;55.668;37.878;2022-12-18T10:06:14;5.78;;;3.33;;
74530;SDS011;63010;55.668;37.878;2022-12-18T10:08:47;7.35;;;3.47;;
74530;SDS011;63010;55.668;37.878;2022-12-18T10:11:24;4.93;;;3.42;;
74530;SDS011;63010;55.668;37.878;2022-12-18T10:21:44;7.25;;;3.95;;
74530;SDS011;63010;55.668;37.878;2022-12-18T10:26:52;4.13;;;3.05;;
74530;SDS011;63010;55.668;37.878;2022-12-18T10:29:21;8.18;;;3.03;;
74530;SDS011;63010;55.668;37.878;2022-12-18T10:31:47;4.55;;;2.75;;
74530;SDS011;63010;55.668;37.878;2022-12-18T10:34:13;4.97;;;2.78;;
74530;SDS011;63010;55.668;37.878;2022-12-18T10:36:39;5.43;;;3.00;;
74530;SDS011;63010;55.668;37.878;2022-12-18T10:39:21;5.28;;;2.72;;
74530;SDS011;63010;55.668;37.878;2022-12-18T10:41:51;5.80;;;3.35;;
74530;SDS011;63010;55.668;37.878;2022-12-18T10:44:34;4.63;;;3.05;;
74530;SDS011;63010;55.668;37.878;2022-12-18T10:47:03;4.97;;;3.20;;
74530;SDS011;63010;55.668;37.878;2022-12-18T10:49:32;4.60;;;3.08;;
74530;SDS011;63010;55.668;37.878;2022-12-18T10:52:19;5.70;;;2.63;;
74530;SDS011;63010;55.668;37.878;2022-12-18T10:54:54;4.80;;;2.72;;
74530;SDS011;63010;55.668;37.878;2022-12-18T10:57:36;5.28;;;3.05;;
74530;SDS011;63010;55.668;37.878;2022-12-18T11:03:01;5.20;;;2.83;;
74530;SDS011;63010;55.668;37.878;2022-12-18T11:05:28;4.35;;;2.42;;
74530;SDS011;63010;55.668;37.878;2022-12-18T11:07:55;6.45;;;2.42;;
74530;SDS011;63010;55.668;37.878;2022-12-18T11:10:25;5.28;;;3.22;;
74530;SDS011;63010;55.668;37.878;2022-12-18T11:13:11;5.13;;;3.10;;
74530;SDS011;63010;55.668;37.878;2022-12-18T11:15:41;6.13;;;4.13;;
74530;SDS011;63010;55.668;37.878;2022-12-18T11:18:15;6.32;;;3.10;;
74530;SDS011;63010;55.668;37.878;2022-12-18T11:20:49;5.55;;;3.22;;
74530;SDS011;63010;55.668;37.878;2022-12-18T11:23:17;4.25;;;2.65;;
74530;SDS011;63010;55.668;37.878;2022-12-18T11:25:51;6.28;;;2.95;;
74530;SDS011;63010;55.668;37.878;2022-12-18T11:33:41;5.30;;;3.00;;
74530;SDS011;63010;55.668;37.878;2022-12-18T11:36:10;6.57;;;4.00;;
74530;SDS011;63010;55.668;37.878;2022-12-18T11:38:40;4.40;;;2.90;;
74530;SDS011;63010;55.668;37.878;2022-12-18T11:41:21;5.30;;;3.08;;
74530;SDS011;63010;55.668;37.878;2022-12-18T11:43:50;7.68;;;2.80;;
74530;SDS011;63010;55.668;37.878;2022-12-18T11:49:01;6.38;;;3.17;;
74530;SDS011;63010;55.668;37.878;2022-12-18T11:54:35;5.75;;;3.45;;
74530;SDS011;63010;55.668;37.878;2022-12-18T11:57:07;6.15;;;3.88;;
74530;SDS011;63010;55.668;37.878;2022-12-18T12:00:13;5.80;;;3.70;;
74530;SDS011;63010;55.668;37.878;2022-12-18T12:08:21;3.72;;;2.47;;
74530;SDS011;63010;55.668;37.878;2022-12-18T12:16:51;4.32;;;2.88;;
74530;SDS011;63010;55.668;37.878;2022-12-18T12:33:28;4.32;;;2.40;;
74530;SDS011;63010;55.668;37.878;2022-12-18T12:38:51;4.60;;;2.40;;
74530;SDS011;63010;55.668;37.878;2022-12-18T12:41:23;4.30;;;2.50;;
74530;SDS011;63010;55.668;37.878;2022-12-18T12:44:12;4.60;;;2.15;;
74530;SDS011;63010;55.668;37.878;2022-12-18T12:46:44;4.80;;;2.47;;
74530;SDS011;63010;55.668;37.878;2022-12-18T12:49:15;4.22;;;2.47;;
74530;SDS011;63010;55.668;37.878;2022-12-18T12:51:45;6.57;;;2.33;;
74530;SDS011;63010;55.668;37.878;2022-12-18T12:54:18;3.45;;;2.10;;
74530;SDS011;63010;55.668;37.878;2022-12-18T12:56:49;4.82;;;2.42;;
74530;SDS011;63010;55.668;37.878;2022-12-18T12:59:59;4.53;;;2.67;;
74530;SDS011;63010;55.668;37.878;2022-12-18T13:02:33;3.80;;;2.95;;
74530;SDS011;63010;55.668;37.878;2022-12-18T13:05:18;6.18;;;2.83;;
74530;SDS011;63010;55.668;37.878;2022-12-18T13:08:22;4.40;;;2.63;;
74530;SDS011;63010;55.668;37.878;2022-12-18T13:10:50;4.60;;;2.20;;
74530;SDS011;63010;55.668;37.878;2022-12-18T13:14:12;3.33;;;2.38;;
74530;SDS011;63010;55.668;37.878;2022-12-18T13:16:28;4.80;;;2.15;;
74530;SDS011;63010;55.668;37.878;2022-12-18T13:18:54;3.95;;;2.17;;
74530;SDS011;63010;55.668;37.878;2022-12-18T13:21:24;5.50;;;2.53;;
74530;SDS011;63010;55.668;37.878;2022-12-18T13:23:54;3.10;;;1.92;;
74530;SDS011;63010;55.668;37.878;2022-12-18T13:28:50;4.25;;;2.15;;
74530;SDS011;63010;55.668;37.878;2022-12-18T13:34:17;4.50;;;1.98;;
74530;SDS011;63010;55.668;37.878;2022-12-18T13:36:47;4.10;;;2.30;;
74530;SDS011;63010;55.668;37.878;2022-12-18T13:41:42;4.72;;;2.78;;
74530;SDS011;63010;55.668;37.878;2022-12-18T13:46:53;3.78;;;2.47;;
74530;SDS011;63010;55.668;37.878;2022-12-18T13:52:16;3.63;;;2.33;;
74530;SDS011;63010;55.668;37.878;2022-12-18T13:54:45;4.78;;;2.50;;
74530;SDS011;63010;55.668;37.878;2022-12-18T13:57:37;3.92;;;1.60;;
74530;SDS011;63010;55.668;37.878;2022-12-18T14:00:25;4.75;;;2.20;;
74530;SDS011;63010;55.668;37.878;2022-12-18T14:02:53;3.78;;;2.08;;
74530;SDS011;63010;55.668;37.878;2022-12-18T14:07:59;4.90;;;3.10;;
74530;SDS011;63010;55.668;37.878;2022-12-18T14:10:28;4.70;;;2.45;;
74530;SDS011;63010;55.668;37.878;2022-12-18T14:12:53;9.57;;;3.50;;
74530;SDS011;63010;55.668;37.878;2022-12-18T14:20:46;9.20;;;3.58;;
74530;SDS011;63010;55.668;37.878;2022-12-18T14:25:59;9.65;;;4.15;;
74530;SDS011;63010;55.668;37.878;2022-12-18T14:28:25;10.00;;;4.95;;
74530;SDS011;63010;55.668;37.878;2022-12-18T14:30:51;11.18;;;4.72;;
74530;SDS011;63010;55.668;37.878;2022-12-18T14:33:20;11.30;;;5.38;;
74530;SDS011;63010;55.668;37.878;2022-12-18T14:35:54;8.23;;;4.25;;
74530;SDS011;63010;55.668;37.878;2022-12-18T14:38:36;9.27;;;4.05;;
74530;SDS011;63010;55.668;37.878;2022-12-18T14:41:04;11.18;;;5.63;;
74530;SDS011;63010;55.668;37.878;2022-12-18T14:43:36;10.65;;;5.93;;
74530;SDS011;63010;55.668;37.878;2022-12-18T14:46:04;14.82;;;6.32;;
74530;SDS011;63010;55.668;37.878;2022-12-18T14:48:40;10.40;;;4.57;;
74530;SDS011;63010;55.668;37.878;2022-12-18T14:53:44;8.70;;;5.40;;
74530;SDS011;63010;55.668;37.878;2022-12-18T14:56:19;9.95;;;5.28;;
74530;SDS011;63010;55.668;37.878;2022-12-18T14:58:48;8.52;;;4.80;;
74530;SDS011;63010;55.668;37.878;2022-12-18T15:01:26;11.35;;;4.57;;
74530;SDS011;63010;55.668;37.878;2022-12-18T15:04:00;9.32;;;5.18;;
74530;SDS011;63010;55.668;37.878;2022-12-18T15:08:56;13.18;;;5.68;;
74530;SDS011;63010;55.668;37.878;2022-12-18T15:11:33;10.85;;;4.93;;
74530;SDS011;63010;55.668;37.878;2022-12-18T15:16:57;10.38;;;4.63;;
74530;SDS011;63010;55.668;37.878;2022-12-18T15:19:42;10.07;;;5.53;;
74530;SDS011;63010;55.668;37.878;2022-12-18T15:22:24;7.53;;;3.75;;
74530;SDS011;63010;55.668;37.878;2022-12-18T15:24:55;11.80;;;4.43;;
74530;SDS011;63010;55.668;37.878;2022-12-18T15:32:37;8.02;;;3.67;;
74530;SDS011;63010;55.668;37.878;2022-12-18T15:35:14;7.20;;;3.88;;
74530;SDS011;63010;55.668;37.878;2022-12-18T15:40:17;8.15;;;4.05;;
74530;SDS011;63010;55.668;37.878;2022-12-18T15:42:48;6.72;;;3.38;;
74530;SDS011;63010;55.668;37.878;2022-12-18T15:45:34;7.40;;;3.75;;
74530;SDS011;63010;55.668;37.878;2022-12-18T15:48:00;4.57;;;2.63;;
74530;SDS011;63010;55.668;37.878;2022-12-18T15:50:28;8.45;;;3.13;;
74530;SDS011;63010;55.668;37.878;2022-12-18T15:52:54;6.35;;;2.95;;
74530;SDS011;63010;55.668;37.878;2022-12-18T15:55:21;5.97;;;3.97;;
74530;SDS011;63010;55.668;37.878;2022-12-18T15:58:07;6.90;;;3.55;;
74530;SDS011;63010;55.668;37.878;2022-12-18T16:00:35;5.32;;;3.08;;
74530;SDS011;63010;55.668;37.878;2022-12-18T16:03:03;6.93;;;3.72;;
74530;SDS011;63010;55.668;37.878;2022-12-18T16:05:29;7.38;;;3.53;;
74530;SDS011;63010;55.668;37.878;2022-12-18T16:07:55;5.70;;;3.33;;
74530;SDS011;63010;55.668;37.878;2022-12-18T16:10:21;5.45;;;3.15;;
74530;SDS011;63010;55.668;37.878;2022-12-18T16:15:14;6.82;;;3.00;;
74530;SDS011;63010;55.668;37.878;2022-12-18T16:17:41;4.68;;;2.65;;
74530;SDS011;63010;55.668;37.878;2022-12-18T16:20:18;5.72;;;3.30;;
74530;SDS011;63010;55.668;37.878;2022-12-18T16:22:46;5.78;;;3.40;;
74530;SDS011;63010;55.668;37.878;2022-12-18T16:25:17;5.38;;;2.88;;
74530;SDS011;63010;55.668;37.878;2022-12-18T16:27:45;6.15;;;3.28;;
74530;SDS011;63010;55.668;37.878;2022-12-18T16:30:14;2.80;;;1.58;;
74530;SDS011;63010;55.668;37.878;2022-12-18T16:32:41;2.88;;;1.75;;
74530;SDS011;63010;55.668;37.878;2022-12-18T16:35:09;7.22;;;3.33;;
74530;SDS011;63010;55.668;37.878;2022-12-18T16:37:35;6.40;;;2.53;;
74530;SDS011;63010;55.668;37.878;2022-12-18T16:40:01;4.80;;;2.90;;
74530;SDS011;63010;55.668;37.878;2022-12-18T16:42:28;3.85;;;2.15;;
74530;SDS011;63010;55.668;37.878;2022-12-18T16:44:54;5.30;;;2.95;;
74530;SDS011;63010;55.668;37.878;2022-12-18T16:47:20;5.70;;;2.63;;
74530;SDS011;63010;55.668;37.878;2022-12-18T16:49:45;3.85;;;2.72;;
74530;SDS011;63010;55.668;37.878;2022-12-18T16:52:13;5.68;;;3.47;;
74530;SDS011;63010;55.668;37.878;2022-12-18T16:54:39;5.03;;;3.38;;
74530;SDS011;63010;55.668;37.878;2022-12-18T16:57:04;5.25;;;3.10;;
74530;SDS011;63010;55.668;37.878;2022-12-18T16:59:30;6.35;;;3.40;;
74530;SDS011;63010;55.668;37.878;2022-12-18T17:01:56;5.20;;;3.30;;
74530;SDS011;63010;55.668;37.878;2022-12-18T17:04:22;6.18;;;3.60;;
74530;SDS011;63010;55.668;37.878;2022-12-18T17:06:47;5.35;;;4.00;;